Terminal Aerodrome Forecast
Issued by NWS

Home | Current Version | Previous Version | Graphics & Text | Print | Product List | Glossary Off
Versions: 1 2 3 4 5 6 7 8 9 10 11 12 13 14 15 16

000
FTUS43 KDDC 202000 AAA
TAFGCK
TAF AMD
KGCK 202000Z 2020/2118 10004G15KT P6SM SKC
     FM202100 04009KT P6SM SKC
     FM210000 09006KT P6SM SKC
     FM210900 17007KT P6SM SKC
     FM211500 18020G30KT P6SM SKC=

USA.gov is the U.S. government's official web portal to all federal, state and local government web resources and services.